createdAt,value
2019-05-01T00:01:38.152Z,20.08
2019-05-01T00:04:36.511Z,18.45
2019-05-01T00:07:11.000Z,19.07
2019-05-01T00:09:40.459Z,16.65
2019-05-01T00:12:09.925Z,19.05
2019-05-01T00:14:39.717Z,19.65
2019-05-01T00:17:09.581Z,16.50
2019-05-01T00:19:38.960Z,16.75
2019-05-01T00:22:11.002Z,17.27
2019-05-01T00:24:40.394Z,17.35
2019-05-01T00:27:10.131Z,17.00
2019-05-01T00:29:39.452Z,16.77
2019-05-01T00:32:08.688Z,18.27
2019-05-01T00:34:38.268Z,17.23
2019-05-01T00:37:07.734Z,17.75
2019-05-01T00:39:37.134Z,17.40
2019-05-01T00:42:07.317Z,17.50
2019-05-01T00:44:37.037Z,15.53
2019-05-01T00:47:07.029Z,16.77
2019-05-01T00:49:36.741Z,15.80
2019-05-01T00:52:06.411Z,16.33
2019-05-01T00:54:37.200Z,15.23
2019-05-01T00:57:28.173Z,16.73
2019-05-01T01:00:15.727Z,18.63
2019-05-01T01:02:49.027Z,17.98
2019-05-01T01:05:18.701Z,18.80
2019-05-01T01:07:48.022Z,18.62
2019-05-01T01:10:18.402Z,16.57
2019-05-01T01:12:47.634Z,16.83
2019-05-01T01:15:17.238Z,18.98
2019-05-01T01:17:46.640Z,18.60
2019-05-01T01:20:16.303Z,19.07
2019-05-01T01:22:46.098Z,21.15
2019-05-01T01:25:15.358Z,16.87
2019-05-01T01:27:44.981Z,19.65
2019-05-01T01:30:14.564Z,16.62
2019-05-01T01:32:44.666Z,17.32
2019-05-01T01:35:14.061Z,17.98
2019-05-01T01:37:43.487Z,18.07
2019-05-01T01:40:14.344Z,18.17
2019-05-01T01:42:45.278Z,17.15
2019-05-01T01:45:23.453Z,17.92
2019-05-01T01:48:27.477Z,20.08
2019-05-01T01:50:57.290Z,16.57
2019-05-01T01:53:26.667Z,17.57
2019-05-01T01:55:55.784Z,16.77
2019-05-01T01:58:25.362Z,17.82
2019-05-01T02:01:23.104Z,19.00
2019-05-01T02:03:57.287Z,19.92
2019-05-01T02:06:26.692Z,18.05
2019-05-01T02:08:56.984Z,17.62
2019-05-01T02:11:26.808Z,17.65
2019-05-01T02:13:56.903Z,17.12
2019-05-01T02:16:26.114Z,19.73
2019-05-01T02:18:55.448Z,21.65
2019-05-01T02:21:25.032Z,18.15
2019-05-01T02:23:54.733Z,17.80
2019-05-01T02:26:27.128Z,18.10
2019-05-01T02:29:17.662Z,17.12
2019-05-01T02:31:49.110Z,21.00
2019-05-01T02:34:19.893Z,17.40
2019-05-01T02:36:50.950Z,17.90
2019-05-01T02:39:22.206Z,17.45
2019-05-01T02:41:54.796Z,18.10
2019-05-01T02:44:36.795Z,18.50
2019-05-01T02:47:11.190Z,18.20
2019-05-01T02:49:49.133Z,17.30
2019-05-01T02:52:19.397Z,17.63
2019-05-01T02:54:49.453Z,16.20
2019-05-01T02:57:20.368Z,18.05
2019-05-01T02:59:53.051Z,17.92
2019-05-01T03:02:25.337Z,17.15
2019-05-01T03:04:56.830Z,15.70
2019-05-01T03:07:29.337Z,18.95
2019-05-01T03:09:58.512Z,20.95
2019-05-01T03:12:31.385Z,17.02
2019-05-01T03:15:03.675Z,18.45
2019-05-01T03:17:54.401Z,18.57
2019-05-01T03:20:55.163Z,17.23
2019-05-01T03:23:52.768Z,17.02
2019-05-01T03:26:22.241Z,19.07
2019-05-01T03:28:51.584Z,17.15
2019-05-01T03:31:21.252Z,17.48
2019-05-01T03:33:51.034Z,14.85
2019-05-01T03:36:21.294Z,18.42
2019-05-01T03:38:51.673Z,17.42
2019-05-01T03:41:21.660Z,18.02
2019-05-01T03:43:51.678Z,17.00
2019-05-01T03:46:21.608Z,15.48
2019-05-01T03:48:51.603Z,17.98
2019-05-01T03:51:21.010Z,17.32
2019-05-01T03:53:50.794Z,16.10
2019-05-01T03:56:20.424Z,15.78
2019-05-01T03:58:49.494Z,13.77
2019-05-01T04:01:47.131Z,16.57
2019-05-01T04:04:19.766Z,15.33
2019-05-01T04:06:49.341Z,16.67
2019-05-01T04:09:19.105Z,16.20
2019-05-01T04:11:48.816Z,16.10
2019-05-01T04:14:18.176Z,16.85
2019-05-01T04:16:51.707Z,14.68
2019-05-01T04:19:22.451Z,17.75
2019-05-01T04:22:00.659Z,15.25
2019-05-01T04:24:30.457Z,16.93
2019-05-01T04:27:00.545Z,14.90
2019-05-01T04:29:36.386Z,16.15
2019-05-01T04:32:12.179Z,14.68
2019-05-01T04:34:51.371Z,15.70
2019-05-01T04:37:22.025Z,17.25
2019-05-01T04:39:53.485Z,13.53
2019-05-01T04:42:22.943Z,14.05
2019-05-01T04:44:52.371Z,15.98
2019-05-01T04:47:24.699Z,13.15
2019-05-01T04:49:54.468Z,13.83
2019-05-01T04:52:23.608Z,14.57
2019-05-01T04:54:53.063Z,14.30
2019-05-01T04:57:22.878Z,13.83
2019-05-01T04:59:52.568Z,14.73
2019-05-01T05:02:37.911Z,13.95
2019-05-01T05:05:09.118Z,14.93
2019-05-01T05:07:38.331Z,14.63
2019-05-01T05:10:07.588Z,12.65
2019-05-01T05:12:48.329Z,14.43
2019-05-01T05:15:35.434Z,13.63
2019-05-01T05:18:04.864Z,14.98
2019-05-01T05:20:34.414Z,15.55
2019-05-01T05:23:05.875Z,15.75
2019-05-01T05:25:35.287Z,13.27
2019-05-01T05:28:05.078Z,15.13
2019-05-01T05:30:37.626Z,16.07
2019-05-01T05:33:18.101Z,14.68
2019-05-01T05:35:43.398Z,16.00
2019-05-01T05:38:42.543Z,14.80
2019-05-01T05:41:11.926Z,14.58
2019-05-01T05:43:41.622Z,15.08
2019-05-01T05:46:11.370Z,17.40
2019-05-01T05:48:40.680Z,15.28
2019-05-01T05:51:27.035Z,16.13
2019-05-01T05:54:00.006Z,16.50
2019-05-01T05:56:37.663Z,15.23
2019-05-01T05:59:13.895Z,16.27
2019-05-01T06:02:13.997Z,14.83
2019-05-01T06:05:02.793Z,16.80
2019-05-01T06:07:41.496Z,17.37
2019-05-01T06:10:36.341Z,18.77
2019-05-01T06:13:18.006Z,15.83
2019-05-01T06:15:57.132Z,15.93
2019-05-01T06:18:39.300Z,16.27
2019-05-01T06:21:29.433Z,18.57
2019-05-01T06:24:06.911Z,18.75
2019-05-01T06:26:39.364Z,16.70
2019-05-01T06:29:10.703Z,18.48
2019-05-01T06:31:40.026Z,18.20
2019-05-01T06:34:09.384Z,19.65
2019-05-01T06:36:38.973Z,17.05
2019-05-01T06:39:12.009Z,17.30
2019-05-01T06:41:44.299Z,16.67
2019-05-01T06:44:25.811Z,17.90
2019-05-01T06:47:17.507Z,16.62
2019-05-01T06:50:06.002Z,14.90
2019-05-01T06:52:36.309Z,15.93
2019-05-01T06:55:07.184Z,16.42
2019-05-01T06:57:42.999Z,15.80
2019-05-01T07:00:14.266Z,17.15
2019-05-01T07:02:46.974Z,16.55
2019-05-01T07:05:16.600Z,16.20
2019-05-01T07:07:48.101Z,18.82
2019-05-01T07:10:29.831Z,15.85
2019-05-01T07:12:49.368Z,15.00
2019-05-01T07:15:21.886Z,14.03
2019-05-01T07:17:50.080Z,14.85
2019-05-01T07:20:51.353Z,14.73
2019-05-01T07:23:19.361Z,14.10
2019-05-01T07:25:48.834Z,13.90
2019-05-01T07:28:18.683Z,15.48
2019-05-01T07:30:54.927Z,14.87
2019-05-01T07:33:23.241Z,14.23
2019-05-01T07:35:54.117Z,15.72
2019-05-01T07:38:23.601Z,13.25
2019-05-01T07:40:53.425Z,13.05
2019-05-01T07:43:37.403Z,12.10
2019-05-01T07:46:18.203Z,14.70
2019-05-01T07:48:46.150Z,14.13
2019-05-01T07:51:16.259Z,12.37
2019-05-01T07:53:48.305Z,13.05
2019-05-01T07:56:17.572Z,14.03
2019-05-01T07:58:51.978Z,14.83
2019-05-01T08:01:41.517Z,13.20
2019-05-01T08:04:13.862Z,13.80
2019-05-01T08:06:41.859Z,12.82
2019-05-01T08:09:14.924Z,12.82
2019-05-01T08:11:44.050Z,13.78
2019-05-01T08:14:16.643Z,13.30
2019-05-01T08:16:47.054Z,13.65
2019-05-01T08:19:34.838Z,11.85
2019-05-01T08:22:08.883Z,12.78
2019-05-01T08:24:38.296Z,13.15
2019-05-01T08:27:10.927Z,11.93
2019-05-01T08:29:58.585Z,11.95
2019-05-01T08:32:56.097Z,13.63
2019-05-01T08:35:27.318Z,14.00
2019-05-01T08:37:58.415Z,13.90
2019-05-01T08:40:28.058Z,14.43
2019-05-01T08:42:57.460Z,14.07
2019-05-01T08:45:58.130Z,13.35
2019-05-01T08:48:36.041Z,13.23
2019-05-01T08:51:04.560Z,14.20
2019-05-01T08:53:44.429Z,15.50
2019-05-01T08:56:16.922Z,14.55
2019-05-01T08:58:49.529Z,16.20
2019-05-01T09:01:16.527Z,14.80
2019-05-01T09:03:49.688Z,14.23
2019-05-01T09:06:18.322Z,15.45
2019-05-01T09:08:48.546Z,13.95
2019-05-01T09:11:18.245Z,13.08
2019-05-01T09:13:47.327Z,14.38
2019-05-01T09:16:19.153Z,14.00
2019-05-01T09:18:47.817Z,13.48
2019-05-01T09:21:16.951Z,13.58
2019-05-01T09:23:51.407Z,14.13
2019-05-01T09:26:39.913Z,13.43
2019-05-01T09:29:16.095Z,12.85
2019-05-01T09:31:44.726Z,14.07
2019-05-01T09:34:19.255Z,12.53
2019-05-01T09:36:47.604Z,11.25
2019-05-01T09:39:21.184Z,10.95
2019-05-01T09:42:03.420Z,12.05
2019-05-01T09:44:32.861Z,10.98
2019-05-01T09:47:05.476Z,10.90
2019-05-01T09:49:36.759Z,12.93
2019-05-01T09:52:34.214Z,11.43
2019-05-01T09:55:12.002Z,10.93
2019-05-01T09:57:42.846Z,10.75
2019-05-01T10:00:20.402Z,10.60
2019-05-01T10:02:49.761Z,10.10
2019-05-01T10:05:28.687Z,11.25
2019-05-01T10:07:51.022Z,11.00
2019-05-01T10:10:20.128Z,11.38
2019-05-01T10:12:49.786Z,10.77
2019-05-01T10:15:19.268Z,11.00
2019-05-01T10:17:50.296Z,11.10
2019-05-01T10:20:23.893Z,10.00
2019-05-01T10:22:53.383Z,10.98
2019-05-01T10:25:23.287Z,10.77
2019-05-01T10:28:01.846Z,10.38
2019-05-01T10:30:49.150Z,11.75
2019-05-01T10:33:21.457Z,12.23
2019-05-01T10:36:20.631Z,13.03
2019-05-01T10:38:50.517Z,13.93
2019-05-01T10:41:20.236Z,13.75
2019-05-01T10:43:49.611Z,11.95
2019-05-01T10:46:19.020Z,13.40
2019-05-01T10:48:48.936Z,11.43
2019-05-01T10:53:49.498Z,11.37
2019-05-01T10:56:18.943Z,13.72
2019-05-01T10:58:48.809Z,13.08
2019-05-01T11:01:24.924Z,11.18
2019-05-01T11:03:54.419Z,9.73
2019-05-01T11:11:21.652Z,10.82
2019-05-01T11:16:19.900Z,11.60
2019-05-01T11:18:49.027Z,11.43
2019-05-01T11:21:18.438Z,12.30
2019-05-01T11:23:47.598Z,11.00
2019-05-01T11:26:17.625Z,11.30
2019-05-01T11:28:46.993Z,10.20
2019-05-01T11:31:18.724Z,11.63
2019-05-01T11:34:07.122Z,12.20
2019-05-01T12:02:02.875Z,13.57
2019-05-01T12:04:32.311Z,9.97
2019-05-01T12:07:01.695Z,10.07
2019-05-01T12:09:33.725Z,9.20
2019-05-01T12:12:06.225Z,9.53
2019-05-01T12:32:05.822Z,12.18
2019-05-01T12:34:35.354Z,12.17
2019-05-01T14:01:26.008Z,10.93
2019-05-01T14:03:55.440Z,11.57
2019-05-01T14:06:25.611Z,8.70
2019-05-01T14:08:55.344Z,10.07
2019-05-01T14:11:25.373Z,9.67
2019-05-01T14:13:55.203Z,12.37
2019-05-01T14:16:24.771Z,11.47
2019-05-01T14:18:55.962Z,12.43
2019-05-01T14:21:44.723Z,8.60
2019-05-01T14:24:35.540Z,10.20
2019-05-01T14:27:07.564Z,12.13
2019-05-01T14:29:36.435Z,9.37
2019-05-01T14:32:06.265Z,9.27
2019-05-01T14:34:35.608Z,8.47
2019-05-01T14:37:06.768Z,11.30
2019-05-01T15:45:18.907Z,10.75
2019-05-01T15:47:47.989Z,13.07
2019-05-01T15:50:17.144Z,10.63
2019-05-01T15:52:46.538Z,13.73
2019-05-01T15:55:16.799Z,13.33
2019-05-01T15:57:46.409Z,11.23
2019-05-01T16:00:19.152Z,11.33
2019-05-01T16:10:18.313Z,10.93
2019-05-01T16:12:58.802Z,8.60
2019-05-01T16:15:32.774Z,11.67
2019-05-01T16:18:02.981Z,11.83
2019-05-01T16:20:33.063Z,12.83
2019-05-01T16:23:02.357Z,14.33
2019-05-01T16:25:31.571Z,10.87
2019-05-01T16:28:01.403Z,11.83
2019-05-01T16:30:30.647Z,10.57
2019-05-01T16:33:01.665Z,10.67
2019-05-01T16:35:31.281Z,10.10
2019-05-01T16:38:02.579Z,11.37
2019-05-01T16:40:57.125Z,11.93
2019-05-01T16:43:26.399Z,12.60
2019-05-01T16:45:59.715Z,9.27
2019-05-01T16:48:29.310Z,10.03
2019-05-01T16:50:58.813Z,10.83
2019-05-01T16:53:28.972Z,7.97
2019-05-01T16:56:00.507Z,10.27
2019-05-01T16:58:29.986Z,9.77
2019-05-01T17:01:03.164Z,7.87
2019-05-01T17:31:55.778Z,11.10
2019-05-01T17:34:30.447Z,11.28
2019-05-01T17:36:58.601Z,9.03
2019-05-01T17:39:28.374Z,9.05
2019-05-01T17:42:02.090Z,10.28
2019-05-01T17:44:28.918Z,10.35
2019-05-01T17:46:58.894Z,11.78
2019-05-01T17:49:28.663Z,10.05
2019-05-01T17:51:59.458Z,11.35
2019-05-01T17:54:30.820Z,9.43
2019-05-01T17:57:00.342Z,9.45
2019-05-01T17:59:30.393Z,9.80
2019-05-01T18:02:24.566Z,9.58
2019-05-01T18:05:24.636Z,10.68
2019-05-01T18:07:54.201Z,9.48
2019-05-01T18:10:23.737Z,12.33
2019-05-01T18:12:52.947Z,10.03
2019-05-01T18:15:22.250Z,9.50
2019-05-01T18:17:51.926Z,8.57
2019-05-01T18:20:21.828Z,9.73
2019-05-01T18:23:12.553Z,11.23
2019-05-01T18:26:04.839Z,11.47
2019-05-01T18:31:33.900Z,11.68
2019-05-01T18:34:04.537Z,10.03
2019-05-01T18:36:38.598Z,11.17
2019-05-01T18:39:28.173Z,11.80
2019-05-01T18:42:09.410Z,12.18
2019-05-01T18:44:42.428Z,11.73
2019-05-01T18:47:12.099Z,14.23
2019-05-01T18:49:41.426Z,11.93
2019-05-01T18:52:11.994Z,10.65
2019-05-01T18:54:41.373Z,11.73
2019-05-01T18:57:11.388Z,13.00
2019-05-01T18:59:41.258Z,12.37
2019-05-01T19:02:10.654Z,13.43
2019-05-01T19:04:41.606Z,18.33
2019-05-01T19:07:14.096Z,17.40
2019-05-01T19:09:54.776Z,13.50
2019-05-01T19:12:24.913Z,16.65
2019-05-01T19:15:00.216Z,16.60
2019-05-01T19:17:28.304Z,13.30
2019-05-01T19:19:58.515Z,16.73
2019-05-01T19:22:36.254Z,15.35
2019-05-01T19:25:15.995Z,15.23
2019-05-01T19:27:47.592Z,15.72
2019-05-01T19:30:19.060Z,15.05
2019-05-01T19:32:48.620Z,16.73
2019-05-01T19:35:23.663Z,14.58
2019-05-01T19:37:52.978Z,14.20
2019-05-01T19:40:25.207Z,13.55
2019-05-01T19:42:58.061Z,15.03
2019-05-01T19:45:27.277Z,16.70
2019-05-01T19:47:56.740Z,13.23
2019-05-01T19:50:26.751Z,14.77
2019-05-01T19:53:00.589Z,13.03
2019-05-01T19:55:30.991Z,13.47
2019-05-01T19:58:00.586Z,17.23
2019-05-01T20:01:04.810Z,17.37
2019-05-01T20:03:36.859Z,16.35
2019-05-01T20:06:08.217Z,12.60
2019-05-01T20:08:38.008Z,17.87
2019-05-01T20:11:09.560Z,15.93
2019-05-01T20:13:39.138Z,15.37
2019-05-01T20:16:09.830Z,14.80
2019-05-01T20:18:39.500Z,15.40
2019-05-01T20:21:11.496Z,14.83
2019-05-01T20:23:41.741Z,16.03
2019-05-01T20:26:11.016Z,14.40
2019-05-01T20:28:41.361Z,16.45
2019-05-01T20:31:12.266Z,17.40
2019-05-01T20:33:44.696Z,18.60
2019-05-01T20:36:13.935Z,19.12
2019-05-01T20:38:43.281Z,15.18
2019-05-01T20:41:16.177Z,17.77
2019-05-01T20:43:45.479Z,16.55
2019-05-01T20:46:21.378Z,16.27
2019-05-01T20:48:50.158Z,18.12
2019-05-01T20:51:20.762Z,19.07
2019-05-01T20:53:50.615Z,16.62
2019-05-01T20:56:40.916Z,17.48
2019-05-01T20:59:12.482Z,19.15
2019-05-01T21:01:44.393Z,19.00
2019-05-01T21:04:26.867Z,18.25
2019-05-01T21:07:20.108Z,19.05
2019-05-01T21:09:52.894Z,17.02
2019-05-01T21:12:19.605Z,18.90
2019-05-01T21:14:49.858Z,17.67
2019-05-01T21:17:19.977Z,18.73
2019-05-01T21:19:54.470Z,18.30
2019-05-01T21:22:25.495Z,19.32
2019-05-01T21:24:55.721Z,19.95
2019-05-01T21:27:26.387Z,18.27
2019-05-01T21:29:56.106Z,20.08
2019-05-01T21:32:27.506Z,19.65
2019-05-01T21:34:57.047Z,18.53
2019-05-01T21:37:29.654Z,21.83
2019-05-01T21:40:00.147Z,20.90
2019-05-01T21:42:32.583Z,22.63
2019-05-01T21:45:04.314Z,21.23
2019-05-01T21:47:34.151Z,23.20
2019-05-01T21:50:03.574Z,18.70
2019-05-01T21:52:33.892Z,17.17
2019-05-01T21:55:04.073Z,17.00
2019-05-01T21:57:37.861Z,16.07
2019-05-01T22:00:06.064Z,14.23
2019-05-01T22:02:41.548Z,15.30
2019-05-01T22:05:08.962Z,17.97
2019-05-01T22:07:38.816Z,16.90
2019-05-01T22:10:31.215Z,15.07
2019-05-01T22:13:03.981Z,19.13
2019-05-01T22:15:42.141Z,18.13
